Time;durP1;ratioP1;P1;durP2;ratioP2;P2;SDS_P1;SDS_P2;PMS_P1;PMS_P2;Temp;Humidity;BMP_temperature;BMP_pressure;BME280_temperature;BME280_humidity;BME280_pressure;Samples;Min_cycle;Max_cycle;Signal;HPM_P1;HPM_P2
2021/03/30 00:02:09;;;;;;;7.13;4.93;;;;;;;;;;5115386;27;20215;-52
2021/03/30 00:04:35;;;;;;;6.18;4.88;;;;;;;;;;5113826;28;20548;-52
2021/03/30 00:07:01;;;;;;;6.20;4.72;;;;;;;;;;5115429;28;20213;-52
2021/03/30 00:09:27;;;;;;;8.02;5.25;;;;;;;;;;5114227;28;20201;-52
2021/03/30 00:11:53;;;;;;;6.70;4.90;;;;;;;;;;5129995;27;20455;-52
2021/03/30 00:14:19;;;;;;;6.25;5.25;;;;;;;;;;5125269;27;20224;-52
2021/03/30 00:16:45;;;;;;;6.47;5.03;;;;;;;;;;5131265;27;20204;-52
2021/03/30 00:19:11;;;;;;;6.25;4.80;;;;;;;;;;5131887;27;20212;-52
2021/03/30 00:21:37;;;;;;;5.50;5.00;;;;;;;;;;5115082;27;20733;-52
2021/03/30 00:24:03;;;;;;;6.28;4.60;;;;;;;;;;5119056;27;20447;-52
2021/03/30 00:26:34;;;;;;;6.07;5.10;;;;;;;;;;5119569;27;20181;-52
2021/03/30 00:29:00;;;;;;;5.97;5.03;;;;;;;;;;5120534;27;20195;-52
2021/03/30 00:31:26;;;;;;;6.65;4.93;;;;;;;;;;5132890;27;20180;-52
2021/03/30 00:33:52;;;;;;;5.88;4.28;;;;;;;;;;5134491;28;20566;-52
2021/03/30 00:36:18;;;;;;;5.18;4.40;;;;;;;;;;5113685;28;20197;-52
2021/03/30 00:38:44;;;;;;;4.93;4.40;;;;;;;;;;5115161;28;20844;-52
2021/03/30 00:41:10;;;;;;;5.78;4.45;;;;;;;;;;5101225;28;20173;-53
2021/03/30 00:43:36;;;;;;;6.15;4.43;;;;;;;;;;5113667;28;20528;-52
2021/03/30 00:46:07;;;;;;;4.68;3.85;;;;;;;;;;5113565;28;20166;-52
2021/03/30 00:48:33;;;;;;;5.10;4.22;;;;;;;;;;5113170;28;20169;-52
2021/03/30 00:50:59;;;;;;;6.47;4.22;;;;;;;;;;5122337;28;20229;-52
2021/03/30 00:53:25;;;;;;;4.75;4.13;;;;;;;;;;5132524;28;20433;-52
2021/03/30 00:55:51;;;;;;;4.68;4.00;;;;;;;;;;5120899;28;20173;-52
2021/03/30 00:58:18;;;;;;;5.28;4.53;;;;;;;;;;5122082;28;20180;-53
2021/03/30 01:00:44;;;;;;;4.82;4.20;;;;;;;;;;5125668;28;20489;-52
2021/03/30 01:03:10;;;;;;;4.93;4.35;;;;;;;;;;5124375;28;20229;-53
2021/03/30 01:05:36;;;;;;;6.40;4.05;;;;;;;;;;5133634;28;20176;-53
2021/03/30 01:08:02;;;;;;;5.70;4.22;;;;;;;;;;5124131;28;20212;-53
2021/03/30 01:10:34;;;;;;;5.40;4.20;;;;;;;;;;5118267;28;20241;-53
2021/03/30 01:13:12;;;;;;;7.25;4.20;;;;;;;;;;5134796;28;20176;-53
2021/03/30 01:15:43;;;;;;;4.43;3.78;;;;;;;;;;5128525;28;20176;-53
2021/03/30 01:18:20;;;;;;;4.65;3.83;;;;;;;;;;5134464;28;20168;-53
2021/03/30 01:20:52;;;;;;;4.35;3.67;;;;;;;;;;5133577;28;20187;-53
2021/03/30 01:23:37;;;;;;;5.18;3.85;;;;;;;;;;5134276;28;20221;-53
2021/03/30 01:26:06;;;;;;;5.05;3.83;;;;;;;;;;5124825;28;20183;-53
2021/03/30 01:28:47;;;;;;;4.00;3.60;;;;;;;;;;5113404;28;20173;-53
2021/03/30 01:31:13;;;;;;;4.75;3.70;;;;;;;;;;5123376;28;20183;-53
2021/03/30 01:33:40;;;;;;;3.90;3.50;;;;;;;;;;5131283;28;20184;-53
2021/03/30 01:36:07;;;;;;;5.32;3.63;;;;;;;;;;5132015;28;20578;-52
2021/03/30 01:38:33;;;;;;;4.57;3.70;;;;;;;;;;5115723;28;20205;-52
2021/03/30 01:40:59;;;;;;;5.18;3.63;;;;;;;;;;5114909;28;20201;-52
2021/03/30 01:43:26;;;;;;;5.32;3.90;;;;;;;;;;5127760;27;20288;-52
2021/03/30 01:45:56;;;;;;;3.83;3.42;;;;;;;;;;5135599;27;20180;-52
2021/03/30 01:48:22;;;;;;;4.10;3.40;;;;;;;;;;5137642;27;20169;-52
2021/03/30 01:50:48;;;;;;;4.35;3.45;;;;;;;;;;5130127;27;20595;-52
2021/03/30 01:53:15;;;;;;;4.10;3.22;;;;;;;;;;5118289;27;20239;-52
2021/03/30 01:55:41;;;;;;;4.80;3.65;;;;;;;;;;5116238;28;20173;-52
2021/03/30 01:58:08;;;;;;;3.83;3.50;;;;;;;;;;5118326;27;20263;-52
2021/03/30 02:00:36;;;;;;;3.95;3.30;;;;;;;;;;5122937;27;20235;-52
2021/03/30 02:03:03;;;;;;;3.80;3.40;;;;;;;;;;5137501;27;20227;-53
2021/03/30 02:05:29;;;;;;;4.57;3.58;;;;;;;;;;5135832;27;20259;-53
2021/03/30 02:07:59;;;;;;;4.65;3.50;;;;;;;;;;5122617;27;20207;-53
2021/03/30 02:10:37;;;;;;;3.47;3.10;;;;;;;;;;5120820;27;20200;-53
2021/03/30 02:13:06;;;;;;;3.28;2.92;;;;;;;;;;5118275;27;20177;-53
2021/03/30 02:15:32;;;;;;;3.75;3.33;;;;;;;;;;5115866;27;20209;-53
2021/03/30 02:18:02;;;;;;;2.92;2.63;;;;;;;;;;5116971;27;20212;-53
2021/03/30 02:20:37;;;;;;;3.53;2.97;;;;;;;;;;5121106;27;20460;-52
2021/03/30 02:23:09;;;;;;;4.05;3.00;;;;;;;;;;5137341;27;20170;-52
2021/03/30 02:25:35;;;;;;;3.60;2.60;;;;;;;;;;5134627;27;20196;-53
2021/03/30 02:28:04;;;;;;;3.38;3.03;;;;;;;;;;5134957;27;20193;-53
2021/03/30 02:30:33;;;;;;;3.30;3.00;;;;;;;;;;5130860;27;20197;-52
2021/03/30 02:32:59;;;;;;;4.40;3.05;;;;;;;;;;5115932;28;20544;-53
2021/03/30 02:35:26;;;;;;;3.08;2.75;;;;;;;;;;5117032;27;20223;-53
2021/03/30 02:37:52;;;;;;;4.32;3.35;;;;;;;;;;5116167;28;20192;-52
2021/03/30 02:40:21;;;;;;;3.13;2.60;;;;;;;;;;5110166;27;20178;-52
2021/03/30 02:42:48;;;;;;;4.55;2.80;;;;;;;;;;5136695;27;20188;-52
2021/03/30 02:45:16;;;;;;;4.10;2.75;;;;;;;;;;5136295;27;20176;-52
2021/03/30 02:47:43;;;;;;;3.50;3.10;;;;;;;;;;5131707;27;20465;-52
2021/03/30 02:50:10;;;;;;;3.70;2.45;;;;;;;;;;5117936;27;20207;-52
2021/03/30 02:52:36;;;;;;;3.25;2.95;;;;;;;;;;5131650;27;20177;-53
2021/03/30 02:55:03;;;;;;;3.28;2.78;;;;;;;;;;5115168;28;20173;-53
2021/03/30 02:57:29;;;;;;;4.47;2.88;;;;;;;;;;5115933;28;20177;-53
2021/03/30 02:59:56;;;;;;;3.33;2.45;;;;;;;;;;5118493;27;20180;-52
2021/03/30 03:02:23;;;;;;;3.47;2.97;;;;;;;;;;5121262;27;20193;-52
2021/03/30 03:04:49;;;;;;;2.67;2.42;;;;;;;;;;5097676;28;20612;-52
2021/03/30 03:07:19;;;;;;;2.72;2.50;;;;;;;;;;5126247;27;20192;-52
2021/03/30 03:09:46;;;;;;;2.67;2.47;;;;;;;;;;5134752;27;20200;-52
2021/03/30 03:12:12;;;;;;;3.30;2.72;;;;;;;;;;5115932;27;20179;-52
2021/03/30 03:14:40;;;;;;;2.88;2.42;;;;;;;;;;5132183;27;20183;-52
2021/03/30 03:17:06;;;;;;;2.88;2.53;;;;;;;;;;5115731;28;20169;-52
2021/03/30 03:19:33;;;;;;;3.90;2.83;;;;;;;;;;5132680;27;20564;-52
2021/03/30 03:21:59;;;;;;;2.50;2.30;;;;;;;;;;5133025;27;20184;-52
2021/03/30 03:24:26;;;;;;;2.40;2.20;;;;;;;;;;5135283;27;20177;-53
2021/03/30 03:26:52;;;;;;;2.55;2.33;;;;;;;;;;5135563;27;20192;-53
2021/03/30 03:29:18;;;;;;;2.47;2.20;;;;;;;;;;5125667;27;20209;-53
2021/03/30 03:31:45;;;;;;;4.00;2.67;;;;;;;;;;5124998;27;20203;-53
2021/03/30 03:34:12;;;;;;;2.70;2.40;;;;;;;;;;5133418;27;20405;-53
2021/03/30 03:36:42;;;;;;;3.53;2.55;;;;;;;;;;5114883;28;20292;-53
2021/03/30 03:39:10;;;;;;;2.55;2.35;;;;;;;;;;5116336;27;20559;-53
2021/03/30 03:41:36;;;;;;;3.20;2.25;;;;;;;;;;5125556;27;20271;-53
2021/03/30 03:44:02;;;;;;;3.53;2.60;;;;;;;;;;5134384;27;20205;-53
2021/03/30 03:46:28;;;;;;;2.67;2.20;;;;;;;;;;5135173;27;20221;-52
2021/03/30 03:48:55;;;;;;;2.55;2.35;;;;;;;;;;5126035;27;20188;-52
2021/03/30 03:51:21;;;;;;;2.53;2.33;;;;;;;;;;5130733;27;20851;-52
2021/03/30 03:53:48;;;;;;;2.63;2.38;;;;;;;;;;5135337;27;20244;-52
2021/03/30 03:56:21;;;;;;;2.50;2.30;;;;;;;;;;5127688;27;20192;-52
2021/03/30 03:58:49;;;;;;;2.45;2.25;;;;;;;;;;5125880;27;20177;-52
2021/03/30 04:01:20;;;;;;;3.22;2.70;;;;;;;;;;5132321;27;20192;-52
2021/03/30 04:03:55;;;;;;;2.45;2.25;;;;;;;;;;5134697;27;20346;-52
2021/03/30 04:06:27;;;;;;;2.65;2.15;;;;;;;;;;5119894;27;20594;-52
2021/03/30 04:08:56;;;;;;;2.38;2.17;;;;;;;;;;5114370;28;20571;-52
2021/03/30 04:11:23;;;;;;;2.55;2.10;;;;;;;;;;5133154;27;20196;-52
2021/03/30 04:13:50;;;;;;;2.33;2.13;;;;;;;;;;5126522;27;20193;-52
2021/03/30 04:16:16;;;;;;;2.60;2.40;;;;;;;;;;5115554;28;20181;-52
2021/03/30 04:18:43;;;;;;;2.65;2.10;;;;;;;;;;5114087;28;20234;-52
2021/03/30 04:21:12;;;;;;;2.00;1.90;;;;;;;;;;5132502;27;20560;-52
2021/03/30 04:23:44;;;;;;;3.47;2.05;;;;;;;;;;5126664;27;20185;-52
2021/03/30 04:26:10;;;;;;;3.53;2.45;;;;;;;;;;5115317;28;20558;-52
2021/03/30 04:28:36;;;;;;;2.30;2.10;;;;;;;;;;5114109;28;20563;-52
2021/03/30 04:31:02;;;;;;;3.10;2.50;;;;;;;;;;5118943;28;20185;-52
2021/03/30 04:33:28;;;;;;;3.80;2.83;;;;;;;;;;5096272;28;20181;-58
2021/03/30 04:35:54;;;;;;;16.77;5.30;;;;;;;;;;5130749;28;20187;-58
2021/03/30 04:38:20;;;;;;;17.73;5.43;;;;;;;;;;5119016;28;20475;-58
2021/03/30 04:40:51;;;;;;;18.15;6.47;;;;;;;;;;5113562;28;20185;-58
2021/03/30 04:43:17;;;;;;;15.10;5.72;;;;;;;;;;5113957;28;20177;-58
2021/03/30 04:45:43;;;;;;;15.65;5.80;;;;;;;;;;5131259;28;20241;-58
2021/03/30 04:48:09;;;;;;;16.05;5.40;;;;;;;;;;5127623;28;20173;-58
2021/03/30 04:50:35;;;;;;;15.07;5.35;;;;;;;;;;5115767;28;20199;-58
2021/03/30 04:53:01;;;;;;;16.05;5.40;;;;;;;;;;5114458;28;20237;-58
2021/03/30 04:55:27;;;;;;;15.20;5.28;;;;;;;;;;5113387;28;20177;-58
2021/03/30 04:57:53;;;;;;;18.38;5.93;;;;;;;;;;5122072;28;20473;-58
2021/03/30 05:00:20;;;;;;;16.17;5.25;;;;;;;;;;5123452;28;20203;-58
2021/03/30 05:02:46;;;;;;;13.90;5.45;;;;;;;;;;5134047;28;20604;-59
2021/03/30 05:05:12;;;;;;;15.68;5.53;;;;;;;;;;5120673;28;20313;-59
2021/03/30 05:07:38;;;;;;;10.98;4.75;;;;;;;;;;5117421;28;20192;-59
2021/03/30 05:10:05;;;;;;;12.30;4.95;;;;;;;;;;5112233;28;20197;-59
2021/03/30 05:12:31;;;;;;;9.18;4.10;;;;;;;;;;5119670;28;20180;-59
2021/03/30 05:14:57;;;;;;;11.73;4.40;;;;;;;;;;5133850;28;20161;-59
2021/03/30 05:17:23;;;;;;;10.73;4.35;;;;;;;;;;5132241;28;20442;-59
2021/03/30 05:19:49;;;;;;;10.40;4.47;;;;;;;;;;5116416;28;20297;-59
2021/03/30 05:22:15;;;;;;;9.65;4.03;;;;;;;;;;5131846;27;20203;-59
2021/03/30 05:24:41;;;;;;;12.48;4.10;;;;;;;;;;5137325;27;20539;-59
2021/03/30 05:27:07;;;;;;;10.05;4.35;;;;;;;;;;5122892;27;20185;-59
2021/03/30 05:29:42;;;;;;;7.32;3.67;;;;;;;;;;5116986;28;20197;-59
2021/03/30 05:32:09;;;;;;;9.60;4.22;;;;;;;;;;5127191;27;20176;-59
2021/03/30 05:34:35;;;;;;;9.43;3.97;;;;;;;;;;5130862;27;20176;-59
2021/03/30 05:37:00;;;;;;;9.70;3.55;;;;;;;;;;5118816;27;20177;-59
2021/03/30 05:39:26;;;;;;;7.45;3.45;;;;;;;;;;5116787;28;20548;-59
2021/03/30 05:41:52;;;;;;;8.00;3.67;;;;;;;;;;5117586;28;20181;-59
2021/03/30 05:44:19;;;;;;;7.95;3.40;;;;;;;;;;5116702;28;20177;-59
2021/03/30 05:46:50;;;;;;;7.75;3.50;;;;;;;;;;5133922;27;20184;-59
2021/03/30 05:49:16;;;;;;;10.55;4.10;;;;;;;;;;5123668;27;20224;-59
2021/03/30 05:51:42;;;;;;;7.15;3.88;;;;;;;;;;5117282;27;20212;-59
2021/03/30 05:54:09;;;;;;;8.77;3.88;;;;;;;;;;5121098;27;20177;-60
2021/03/30 05:56:39;;;;;;;7.65;3.40;;;;;;;;;;5116562;27;20196;-59
2021/03/30 05:59:05;;;;;;;6.13;3.38;;;;;;;;;;5124360;27;20565;-59
2021/03/30 06:01:32;;;;;;;7.38;4.13;;;;;;;;;;5137240;27;20207;-59
2021/03/30 06:04:01;;;;;;;6.18;3.40;;;;;;;;;;5136912;27;20177;-59
2021/03/30 06:06:27;;;;;;;8.27;3.20;;;;;;;;;;5122993;27;20238;-59
2021/03/30 06:08:53;;;;;;;7.10;3.20;;;;;;;;;;5136452;27;20184;-59
2021/03/30 06:11:19;;;;;;;7.43;3.10;;;;;;;;;;5135557;27;20193;-60
2021/03/30 06:13:47;;;;;;;7.43;3.13;;;;;;;;;;5135924;27;20203;-59
2021/03/30 06:16:23;;;;;;;8.38;3.30;;;;;;;;;;5116589;27;20195;-59
2021/03/30 06:18:59;;;;;;;4.72;3.08;;;;;;;;;;5119859;27;20179;-59
2021/03/30 06:21:25;;;;;;;7.32;3.30;;;;;;;;;;5122392;27;20207;-59
2021/03/30 06:23:51;;;;;;;5.88;2.97;;;;;;;;;;5116784;28;20181;-60
2021/03/30 06:26:17;;;;;;;7.45;3.17;;;;;;;;;;5121906;27;20191;-59
2021/03/30 06:28:44;;;;;;;4.72;2.88;;;;;;;;;;5136776;27;20225;-60
2021/03/30 06:31:13;;;;;;;3.95;2.80;;;;;;;;;;5136453;27;20548;-60
2021/03/30 06:33:51;;;;;;;4.70;2.78;;;;;;;;;;5122490;27;20456;-59
2021/03/30 06:36:19;;;;;;;5.38;3.03;;;;;;;;;;5134880;27;20313;-59
2021/03/30 06:39:03;;;;;;;5.15;2.58;;;;;;;;;;5136592;27;20373;-59
2021/03/30 06:41:44;;;;;;;6.50;3.05;;;;;;;;;;5124641;27;20177;-59
2021/03/30 06:46:51;;;;;;;7.00;3.03;;;;;;;;;;5115925;28;20591;-59
2021/03/30 06:49:19;;;;;;;4.75;2.80;;;;;;;;;;5116119;28;20831;-60
2021/03/30 06:51:45;;;;;;;4.78;2.80;;;;;;;;;;5115824;28;20822;-60
2021/03/30 06:54:11;;;;;;;5.57;2.90;;;;;;;;;;5126477;27;20283;-60
2021/03/30 06:56:47;;;;;;;5.28;2.83;;;;;;;;;;5133789;27;20275;-60
2021/03/30 06:59:14;;;;;;;4.22;2.78;;;;;;;;;;5115815;28;20596;-59
2021/03/30 07:01:40;;;;;;;6.47;3.00;;;;;;;;;;5115302;28;20185;-60
2021/03/30 07:04:06;;;;;;;6.40;3.08;;;;;;;;;;5122050;27;20177;-60
2021/03/30 07:06:33;;;;;;;5.45;2.63;;;;;;;;;;5130304;27;20246;-60
2021/03/30 07:09:00;;;;;;;4.65;2.92;;;;;;;;;;5116952;27;20184;-60
2021/03/30 07:11:27;;;;;;;3.30;2.35;;;;;;;;;;5126764;27;20173;-59
2021/03/30 07:13:53;;;;;;;3.92;2.45;;;;;;;;;;5115639;28;20177;-60
2021/03/30 07:16:21;;;;;;;5.30;2.65;;;;;;;;;;5114789;28;20223;-60
2021/03/30 07:18:48;;;;;;;4.20;2.42;;;;;;;;;;5116216;27;20174;-60
2021/03/30 07:21:30;;;;;;;4.55;2.80;;;;;;;;;;5127163;27;20263;-60
2021/03/30 07:23:58;;;;;;;3.70;2.40;;;;;;;;;;5135295;27;20200;-60
2021/03/30 07:26:27;;;;;;;2.58;2.38;;;;;;;;;;5118213;27;20184;-60
2021/03/30 07:29:02;;;;;;;4.32;2.53;;;;;;;;;;5115212;28;20220;-60
2021/03/30 07:31:43;;;;;;;5.53;3.15;;;;;;;;;;5114993;27;20472;-60
2021/03/30 07:34:10;;;;;;;3.53;2.13;;;;;;;;;;5113235;27;20177;-60
2021/03/30 07:36:47;;;;;;;3.83;2.85;;;;;;;;;;5112968;28;20714;-59
2021/03/30 07:39:16;;;;;;;5.32;2.75;;;;;;;;;;5113507;28;20177;-60
2021/03/30 07:41:42;;;;;;;4.68;2.33;;;;;;;;;;5113177;28;20173;-60
2021/03/30 07:44:08;;;;;;;3.53;2.05;;;;;;;;;;5113220;28;20187;-60
2021/03/30 07:46:35;;;;;;;3.42;2.65;;;;;;;;;;5114197;28;20994;-60
2021/03/30 07:49:02;;;;;;;4.05;2.33;;;;;;;;;;5114878;28;20584;-60
2021/03/30 07:51:36;;;;;;;2.63;2.38;;;;;;;;;;5127835;27;20474;-60
2021/03/30 07:54:08;;;;;;;5.47;2.42;;;;;;;;;;5122054;27;20208;-60
2021/03/30 07:56:40;;;;;;;3.75;2.55;;;;;;;;;;5129626;27;20462;-59
2021/03/30 07:59:06;;;;;;;3.30;2.40;;;;;;;;;;5133067;27;20245;-60
2021/03/30 08:01:34;;;;;;;3.58;2.38;;;;;;;;;;5114675;28;20441;-60
2021/03/30 08:04:00;;;;;;;3.17;2.20;;;;;;;;;;5114427;28;20197;-60
2021/03/30 08:06:28;;;;;;;3.75;2.28;;;;;;;;;;5100833;27;20188;-59
2021/03/30 08:08:58;;;;;;;4.53;2.45;;;;;;;;;;5133553;27;20180;-60
2021/03/30 08:11:39;;;;;;;4.97;2.40;;;;;;;;;;5134885;27;20583;-60
2021/03/30 08:14:09;;;;;;;6.70;2.63;;;;;;;;;;5130241;27;20208;-60
2021/03/30 08:16:40;;;;;;;4.20;2.78;;;;;;;;;;5133276;27;20246;-59
2021/03/30 08:19:10;;;;;;;5.47;3.08;;;;;;;;;;5131702;27;20563;-60
2021/03/30 08:21:55;;;;;;;4.30;2.65;;;;;;;;;;5132352;27;20173;-60
2021/03/30 08:24:21;;;;;;;5.05;2.75;;;;;;;;;;5117154;27;20181;-60
2021/03/30 08:26:47;;;;;;;5.35;2.72;;;;;;;;;;5134730;27;20169;-59
2021/03/30 08:29:15;;;;;;;9.00;3.58;;;;;;;;;;5121310;27;20207;-60
2021/03/30 08:31:42;;;;;;;16.67;4.95;;;;;;;;;;5134536;27;20230;-59
2021/03/30 08:34:23;;;;;;;14.52;5.68;;;;;;;;;;5128704;28;20168;-60
2021/03/30 08:36:49;;;;;;;23.33;7.68;;;;;;;;;;5114369;28;20195;-60
2021/03/30 08:39:18;;;;;;;44.15;12.00;;;;;;;;;;5117891;28;20202;-60
2021/03/30 08:41:48;;;;;;;50.50;14.95;;;;;;;;;;5123122;28;20176;-60
2021/03/30 08:44:15;;;;;;;54.75;16.42;;;;;;;;;;5134110;28;20611;-60
2021/03/30 08:46:42;;;;;;;67.18;17.38;;;;;;;;;;5117088;28;20552;-60
2021/03/30 08:49:28;;;;;;;67.82;19.20;;;;;;;;;;5124649;27;20195;-59
2021/03/30 08:51:58;;;;;;;65.78;19.60;;;;;;;;;;5123250;27;20197;-60
2021/03/30 08:54:25;;;;;;;76.22;19.38;;;;;;;;;;5125960;27;20506;-59
2021/03/30 08:56:51;;;;;;;74.28;20.02;;;;;;;;;;5118236;28;20613;-59
2021/03/30 08:59:21;;;;;;;61.10;18.15;;;;;;;;;;5118212;28;20459;-60
2021/03/30 09:01:55;;;;;;;65.78;19.13;;;;;;;;;;5118127;28;20230;-60
2021/03/30 09:04:21;;;;;;;77.55;20.75;;;;;;;;;;5122134;27;20238;-59
2021/03/30 09:06:53;;;;;;;72.88;18.45;;;;;;;;;;5138531;27;20282;-59
2021/03/30 09:09:21;;;;;;;67.35;18.52;;;;;;;;;;5138266;27;20237;-59
2021/03/30 09:11:47;;;;;;;73.90;19.55;;;;;;;;;;5129909;27;20482;-59
2021/03/30 09:14:16;;;;;;;68.10;19.05;;;;;;;;;;5117500;28;20173;-59
2021/03/30 09:16:44;;;;;;;69.53;19.52;;;;;;;;;;5117581;28;20165;-59
2021/03/30 09:19:18;;;;;;;64.53;19.60;;;;;;;;;;5117608;28;20454;-60
2021/03/30 09:21:46;;;;;;;71.80;19.45;;;;;;;;;;5117624;28;20181;-60
2021/03/30 09:24:28;;;;;;;58.80;17.58;;;;;;;;;;5117446;27;20189;-60
2021/03/30 09:26:54;;;;;;;71.75;19.15;;;;;;;;;;5125242;27;20187;-60
2021/03/30 09:29:20;;;;;;;74.30;17.55;;;;;;;;;;5133417;27;20205;-60
2021/03/30 09:31:47;;;;;;;69.03;18.05;;;;;;;;;;5117587;28;20246;-60
2021/03/30 09:34:13;;;;;;;54.83;16.00;;;;;;;;;;5119533;27;20208;-60
2021/03/30 09:36:47;;;;;;;54.83;13.82;;;;;;;;;;5130478;27;20914;-60
2021/03/30 09:39:23;;;;;;;44.55;13.18;;;;;;;;;;5136861;27;20157;-60
2021/03/30 09:41:50;;;;;;;49.60;12.10;;;;;;;;;;5117350;28;20177;-60
2021/03/30 09:44:17;;;;;;;44.97;12.00;;;;;;;;;;5128766;27;20188;-59
2021/03/30 09:46:47;;;;;;;33.63;10.80;;;;;;;;;;5104014;27;20209;-60
2021/03/30 09:49:18;;;;;;;26.52;9.00;;;;;;;;;;5128939;27;20208;-60
2021/03/30 09:51:44;;;;;;;29.55;7.72;;;;;;;;;;5125995;27;20283;-60
2021/03/30 09:54:23;;;;;;;23.48;7.88;;;;;;;;;;5132601;27;20268;-60
2021/03/30 09:56:55;;;;;;;22.70;7.40;;;;;;;;;;5136534;27;20215;-60
2021/03/30 09:59:21;;;;;;;21.85;6.88;;;;;;;;;;5135501;27;20181;-60
2021/03/30 10:01:47;;;;;;;20.63;7.13;;;;;;;;;;5125640;27;20202;-60
2021/03/30 10:04:13;;;;;;;23.70;7.13;;;;;;;;;;5128392;27;20675;-60
2021/03/30 10:06:39;;;;;;;21.42;6.88;;;;;;;;;;5115334;28;20213;-59
2021/03/30 10:09:07;;;;;;;19.35;6.40;;;;;;;;;;5128176;27;20237;-59
2021/03/30 10:11:33;;;;;;;17.70;6.28;;;;;;;;;;5120455;27;20249;-60
2021/03/30 10:14:17;;;;;;;22.10;6.93;;;;;;;;;;5136144;27;20225;-60
2021/03/30 10:16:44;;;;;;;16.25;5.72;;;;;;;;;;5122327;27;20200;-60
2021/03/30 10:19:10;;;;;;;17.98;6.53;;;;;;;;;;5128262;27;20177;-60
2021/03/30 10:21:37;;;;;;;16.67;6.00;;;;;;;;;;5116027;28;20177;-62
2021/03/30 10:24:10;;;;;;;14.20;5.40;;;;;;;;;;5133563;27;20184;-60
2021/03/30 10:26:36;;;;;;;15.60;5.28;;;;;;;;;;5136633;27;20255;-60
2021/03/30 10:29:05;;;;;;;14.27;5.20;;;;;;;;;;5133567;27;20165;-60
2021/03/30 10:31:45;;;;;;;15.30;5.15;;;;;;;;;;5118842;27;20173;-60
2021/03/30 10:34:23;;;;;;;19.02;5.05;;;;;;;;;;5129254;27;20173;-60
2021/03/30 10:36:50;;;;;;;11.43;4.90;;;;;;;;;;5118723;27;20195;-60
2021/03/30 10:39:16;;;;;;;10.88;4.30;;;;;;;;;;5116298;27;20213;-60
2021/03/30 10:41:43;;;;;;;9.05;4.22;;;;;;;;;;5123434;27;20207;-60
2021/03/30 10:44:10;;;;;;;9.98;3.75;;;;;;;;;;5120520;27;20177;-60
2021/03/30 10:46:42;;;;;;;9.70;4.00;;;;;;;;;;5117618;27;20178;-60
2021/03/30 10:49:08;;;;;;;9.15;4.00;;;;;;;;;;5123800;27;20188;-60
2021/03/30 10:51:36;;;;;;;8.63;3.45;;;;;;;;;;5115728;28;20173;-60
2021/03/30 10:54:03;;;;;;;7.32;3.55;;;;;;;;;;5135948;27;20571;-60
2021/03/30 10:56:30;;;;;;;9.18;3.50;;;;;;;;;;5136051;27;20184;-60
2021/03/30 10:58:56;;;;;;;5.03;3.22;;;;;;;;;;5136133;27;20225;-60
2021/03/30 11:01:22;;;;;;;7.30;3.35;;;;;;;;;;5116011;27;20295;-60
2021/03/30 11:03:48;;;;;;;5.45;3.25;;;;;;;;;;5115905;28;20173;-59
2021/03/30 11:06:14;;;;;;;5.63;3.03;;;;;;;;;;5133157;27;20267;-60
2021/03/30 11:08:41;;;;;;;5.50;3.03;;;;;;;;;;5135742;27;20189;-60
2021/03/30 11:11:07;;;;;;;4.72;2.47;;;;;;;;;;5136183;27;20196;-59
2021/03/30 11:13:33;;;;;;;4.72;2.80;;;;;;;;;;5134903;27;20187;-60
2021/03/30 11:15:59;;;;;;;6.90;2.65;;;;;;;;;;5122785;27;20196;-60
2021/03/30 11:18:25;;;;;;;3.25;2.60;;;;;;;;;;5118647;27;20185;-60
2021/03/30 11:20:51;;;;;;;4.10;2.40;;;;;;;;;;5098833;27;20521;-60
2021/03/30 11:23:17;;;;;;;6.13;2.53;;;;;;;;;;5115799;28;20177;-60
2021/03/30 11:25:43;;;;;;;3.35;2.25;;;;;;;;;;5114319;28;20183;-60
2021/03/30 11:28:11;;;;;;;4.80;2.58;;;;;;;;;;5115411;28;20173;-60
2021/03/30 11:30:44;;;;;;;4.82;2.50;;;;;;;;;;5115096;28;20189;-60
2021/03/30 11:34:14;;;;;;;4.53;2.33;;;;;;;;;;5115612;28;20440;-60
2021/03/30 11:36:12;;;;;;;4.22;2.13;;;;;;;;;;5117411;27;20478;-60
2021/03/30 11:38:38;;;;;;;4.32;2.03;;;;;;;;;;5132661;27;20195;-60
2021/03/30 11:41:04;;;;;;;2.65;1.80;;;;;;;;;;5115441;28;20181;-60
2021/03/30 11:43:30;;;;;;;2.25;1.83;;;;;;;;;;5119571;27;20185;-60
2021/03/30 11:45:56;;;;;;;2.60;1.75;;;;;;;;;;5119067;27;20260;-60
2021/03/30 11:48:22;;;;;;;8.68;2.17;;;;;;;;;;5114387;28;20185;-61
2021/03/30 11:50:49;;;;;;;8.30;2.03;;;;;;;;;;5128793;27;20235;-60
2021/03/30 11:53:15;;;;;;;5.35;2.42;;;;;;;;;;5121451;27;20202;-60
2021/03/30 11:55:41;;;;;;;4.00;2.42;;;;;;;;;;5114841;27;20196;-60
2021/03/30 11:58:07;;;;;;;3.28;1.80;;;;;;;;;;5114820;28;20619;-60
2021/03/30 12:00:33;;;;;;;2.78;1.95;;;;;;;;;;5115700;27;20260;-60
2021/03/30 12:03:00;;;;;;;3.92;2.33;;;;;;;;;;5117202;27;20288;-60
2021/03/30 12:05:26;;;;;;;5.63;2.28;;;;;;;;;;5124466;27;20185;-60
2021/03/30 12:07:55;;;;;;;3.65;2.30;;;;;;;;;;5118410;27;20287;-60
2021/03/30 12:10:21;;;;;;;4.38;3.00;;;;;;;;;;5129722;27;20578;-60
2021/03/30 12:12:48;;;;;;;3.75;2.72;;;;;;;;;;5121500;27;20180;-60
2021/03/30 12:15:14;;;;;;;3.25;2.63;;;;;;;;;;5134269;27;20173;-60
2021/03/30 12:17:40;;;;;;;4.45;2.63;;;;;;;;;;5113777;28;20252;-60
2021/03/30 12:20:07;;;;;;;4.47;2.50;;;;;;;;;;5114983;27;20177;-60
2021/03/30 12:22:34;;;;;;;6.47;2.53;;;;;;;;;;5113691;28;20192;-60
2021/03/30 12:25:00;;;;;;;4.68;2.20;;;;;;;;;;5115145;27;20169;-60
2021/03/30 12:27:26;;;;;;;4.68;2.22;;;;;;;;;;5113828;28;20192;-60
2021/03/30 12:29:52;;;;;;;4.15;2.30;;;;;;;;;;5115031;27;20201;-60
2021/03/30 12:32:18;;;;;;;2.70;2.50;;;;;;;;;;5114454;28;20575;-60
2021/03/30 12:34:44;;;;;;;3.85;2.50;;;;;;;;;;5120800;28;20547;-60
2021/03/30 12:37:11;;;;;;;3.97;2.67;;;;;;;;;;5134771;28;20179;-60
2021/03/30 12:39:37;;;;;;;3.58;1.90;;;;;;;;;;5134598;28;20275;-61
2021/03/30 12:42:05;;;;;;;4.72;2.08;;;;;;;;;;5132297;28;20442;-60
2021/03/30 12:44:31;;;;;;;5.00;2.10;;;;;;;;;;5133348;28;20462;-60
2021/03/30 12:46:57;;;;;;;3.75;2.30;;;;;;;;;;5134766;28;20176;-60
2021/03/30 12:49:23;;;;;;;3.20;2.00;;;;;;;;;;5133918;28;20474;-61
2021/03/30 12:51:49;;;;;;;2.38;2.13;;;;;;;;;;5116792;28;20263;-61
2021/03/30 12:54:16;;;;;;;3.92;2.17;;;;;;;;;;5134138;28;20172;-60
2021/03/30 12:56:42;;;;;;;4.25;2.20;;;;;;;;;;5134194;28;20634;-60
2021/03/30 12:59:08;;;;;;;4.22;1.83;;;;;;;;;;5133088;28;20194;-61
2021/03/30 13:01:34;;;;;;;5.72;2.00;;;;;;;;;;5134156;28;20179;-60
2021/03/30 13:04:00;;;;;;;4.55;2.00;;;;;;;;;;5134188;28;20168;-60
2021/03/30 13:06:26;;;;;;;4.13;2.20;;;;;;;;;;5133839;28;20271;-60
2021/03/30 13:08:52;;;;;;;2.47;1.83;;;;;;;;;;5123691;28;20268;-60
2021/03/30 13:11:18;;;;;;;2.45;1.95;;;;;;;;;;5133409;28;20558;-60
2021/03/30 13:13:44;;;;;;;5.18;2.00;;;;;;;;;;5132760;28;20180;-60
2021/03/30 13:16:10;;;;;;;2.85;1.77;;;;;;;;;;5134053;28;20259;-60
2021/03/30 13:18:36;;;;;;;3.20;2.05;;;;;;;;;;5132108;28;20248;-60
2021/03/30 13:21:03;;;;;;;1.88;1.73;;;;;;;;;;5118070;28;20264;-61
2021/03/30 13:23:29;;;;;;;6.43;2.28;;;;;;;;;;5125007;28;20226;-60
2021/03/30 13:25:55;;;;;;;4.20;2.20;;;;;;;;;;5115394;28;20524;-60
2021/03/30 13:28:21;;;;;;;3.13;1.90;;;;;;;;;;5117214;28;20208;-60
2021/03/30 13:30:47;;;;;;;2.92;1.98;;;;;;;;;;5126128;28;20515;-60
2021/03/30 13:33:13;;;;;;;2.15;1.95;;;;;;;;;;5134048;28;20223;-60
2021/03/30 13:35:39;;;;;;;2.03;1.58;;;;;;;;;;5119738;28;20184;-60
2021/03/30 13:38:06;;;;;;;3.17;2.17;;;;;;;;;;5133989;28;20175;-60
2021/03/30 13:40:33;;;;;;;5.68;1.85;;;;;;;;;;5136687;27;20920;-60
2021/03/30 13:43:01;;;;;;;4.05;1.80;;;;;;;;;;5137966;27;20173;-60
2021/03/30 13:45:27;;;;;;;3.08;1.60;;;;;;;;;;5137017;27;20229;-60
2021/03/30 13:47:53;;;;;;;3.10;1.45;;;;;;;;;;5135839;27;20196;-60
2021/03/30 13:50:19;;;;;;;2.05;1.75;;;;;;;;;;5137629;27;20192;-60
2021/03/30 13:52:46;;;;;;;3.40;1.85;;;;;;;;;;5137618;27;20221;-60
2021/03/30 13:55:12;;;;;;;3.15;1.77;;;;;;;;;;5137491;27;20172;-60
2021/03/30 13:57:38;;;;;;;3.67;1.75;;;;;;;;;;5126894;27;20241;-60
2021/03/30 14:00:08;;;;;;;2.20;1.40;;;;;;;;;;5117280;28;20177;-60
2021/03/30 14:02:35;;;;;;;2.35;1.77;;;;;;;;;;5117762;27;20185;-61
2021/03/30 14:05:01;;;;;;;2.58;1.60;;;;;;;;;;5130816;27;20224;-60
2021/03/30 14:07:27;;;;;;;2.03;1.70;;;;;;;;;;5137033;27;20200;-60
2021/03/30 14:09:53;;;;;;;1.65;1.40;;;;;;;;;;5137103;27;20222;-60
2021/03/30 14:12:30;;;;;;;3.35;1.50;;;;;;;;;;5126265;27;20184;-60
2021/03/30 14:15:01;;;;;;;4.47;1.90;;;;;;;;;;5136794;27;20176;-60
2021/03/30 14:17:30;;;;;;;1.50;1.20;;;;;;;;;;5136147;27;20184;-60
2021/03/30 14:19:59;;;;;;;2.53;1.30;;;;;;;;;;5136133;27;20296;-60
2021/03/30 14:22:30;;;;;;;3.05;1.65;;;;;;;;;;5136743;27;20173;-60
2021/03/30 14:25:02;;;;;;;4.68;1.50;;;;;;;;;;5130969;27;20181;-60
2021/03/30 14:27:29;;;;;;;1.25;1.10;;;;;;;;;;5120060;27;20483;-60
2021/03/30 14:29:55;;;;;;;5.80;1.42;;;;;;;;;;5123691;27;20203;-60
2021/03/30 14:32:22;;;;;;;5.90;1.80;;;;;;;;;;5128360;27;20235;-60
2021/03/30 14:34:49;;;;;;;3.75;1.45;;;;;;;;;;5127404;27;20174;-60
2021/03/30 14:37:19;;;;;;;3.35;1.20;;;;;;;;;;5122453;27;20221;-61
2021/03/30 14:39:47;;;;;;;15.32;1.40;;;;;;;;;;5136749;27;20208;-60
2021/03/30 14:42:16;;;;;;;2.40;1.08;;;;;;;;;;5136501;27;20207;-60
2021/03/30 14:53:15;;;;;;;2.72;0.90;;;;;;;;;;5116023;27;20174;-60
2021/03/30 14:55:57;;;;;;;3.55;1.13;;;;;;;;;;5115119;28;20187;-60